Avon, CO (81620)

10:12 AM MST on February 27, 2017 (GMT -0700)
Whiskey Hill, EagleVail | | Change Station

Elev 7959 ft 39.61 °N, 106.48 °W | Updated 12 minutes ago

Overcast
Overcast
26.7 °F
Feels Like 27 °F
N
1.0
Wind Variable Wind from ENE
Gusts 3.0 mph

Today
High -- | Low -- °F
--% Chance of Precip.
Yesterday
High -- | Low -- °F
Precip. -- in
Pressure 29.69 in
Visibility 10.0 miles
Clouds Mostly Cloudy 4300 ft
Windchill 27 °F
Dew Point 11 °F
Humidity 52%
Rainfall 0.00 in
Snow Depth Not available.
6:41 AM 5:56 PM
New Moon, 1% visible
METAR KEGE 271650Z 24021KT 10SM BKN043 03/M08 A2969
Pressure 29.69 in
Visibility 10.0 miles
Clouds Mostly Cloudy 4300 ft
Windchill 27 °F
Dew Point 11 °F
Humidity 52%
Rainfall 0.00 in
Snow Depth Not available.
6:41 AM 5:56 PM
New Moon, 1% visible
METAR KEGE 271650Z 24021KT 10SM BKN043 03/M08 A2969

Get Your Daily Forecast Email!

Thanks for signing up!

Be on the lookout for a verification email in your inbox.

You'll start receiving the daily forecast at 8 AM.

×

10-Day Weather Forecast

Almanac

Astronomy

Feb. 27, 2017 Rise Set
Actual Time
Civil Twilight
Nautical Twilight
Astronomical Twilight
Moon
Length of Visible Light
Length of Day
Tomorrow will be .
, % of the Moon is Illuminated

Today's Extremes

State Highs State Lows

Community

WunderPhotos

Upload Photos

1,962,540 photos uploaded!

WunderBlog® & News

Nearby

Air Quality

  Air Quality AQ Index Pollutant
Not available.

Snow Depth

Station Depth Elevation

Earthquake Activity

City Distance Mag. Time & Date
Minimum magnitude displayed is 2.5.

Coastal Water Temperatures

Place Temperature

Stations

Nearby Weather Stations

Station Location Temp. Windchill Dew Point Humidity Wind Precip. Elev Updated Type
                   

Watches & Warnings

There are currently no watches in effect.